createdAt,value
2023-05-10T00:01:38.946Z,5.38
2023-05-10T00:04:41.214Z,5.03
2023-05-10T00:07:45.875Z,6.40
2023-05-10T00:10:48.355Z,3.70
2023-05-10T00:13:50.733Z,5.80
2023-05-10T00:16:53.168Z,5.65
2023-05-10T00:19:55.662Z,5.32
2023-05-10T00:22:57.940Z,5.05
2023-05-10T00:26:00.198Z,5.32
2023-05-10T00:29:02.542Z,4.57
2023-05-10T00:32:05.120Z,7.03
2023-05-10T00:35:07.792Z,4.57
2023-05-10T00:38:10.220Z,4.65
2023-05-10T00:41:12.503Z,4.82
2023-05-10T00:44:16.477Z,4.30
2023-05-10T00:47:18.769Z,4.13
2023-05-10T00:50:21.075Z,5.53
2023-05-10T00:53:23.476Z,4.60
2023-05-10T00:56:26.591Z,5.05
2023-05-10T00:59:29.726Z,6.63
2023-05-10T01:02:32.095Z,4.80
2023-05-10T01:05:34.468Z,5.22
2023-05-10T01:08:37.763Z,8.63
2023-05-10T01:11:41.067Z,5.35
2023-05-10T01:14:44.196Z,4.35
2023-05-10T01:17:48.432Z,5.15
2023-05-10T01:21:04.374Z,5.47
2023-05-10T01:24:18.745Z,4.88
2023-05-10T01:27:48.798Z,5.70
2023-05-10T01:31:33.120Z,4.63
2023-05-10T01:34:45.036Z,5.90
2023-05-10T01:38:19.584Z,4.35
2023-05-10T01:41:37.350Z,5.43
2023-05-10T01:44:59.585Z,4.25
2023-05-10T01:48:12.202Z,6.00
2023-05-10T01:51:20.711Z,6.28
2023-05-10T01:54:24.702Z,5.25
2023-05-10T01:57:29.032Z,5.05
2023-05-10T02:00:34.485Z,4.97
2023-05-10T02:03:39.422Z,5.82
2023-05-10T02:06:43.901Z,6.55
2023-05-10T02:09:50.861Z,4.45
2023-05-10T02:12:56.235Z,6.13
2023-05-10T02:16:00.156Z,5.20
2023-05-10T02:19:03.704Z,6.72
2023-05-10T02:22:07.164Z,5.38
2023-05-10T02:25:10.257Z,5.00
2023-05-10T02:28:13.832Z,6.13
2023-05-10T02:31:16.484Z,5.07
2023-05-10T02:34:18.902Z,4.35
2023-05-10T02:37:22.988Z,7.03
2023-05-10T02:40:28.764Z,5.88
2023-05-10T02:43:34.645Z,6.55
2023-05-10T02:46:38.635Z,5.20
2023-05-10T02:49:41.233Z,7.13
2023-05-10T02:52:49.057Z,6.05
2023-05-10T02:55:53.823Z,6.70
2023-05-10T02:58:56.597Z,6.82
2023-05-10T03:02:00.896Z,6.55
2023-05-10T03:05:04.123Z,7.72
2023-05-10T03:08:07.195Z,6.13
2023-05-10T03:11:40.889Z,9.00
2023-05-10T03:14:56.613Z,5.30
2023-05-10T03:18:29.629Z,7.05
2023-05-10T03:21:32.883Z,6.90
2023-05-10T03:24:37.758Z,5.50
2023-05-10T03:27:42.985Z,6.55
2023-05-10T03:30:47.189Z,5.97
2023-05-10T03:33:50.782Z,7.85
2023-05-10T03:36:58.182Z,6.80
2023-05-10T03:40:04.868Z,7.75
2023-05-10T03:43:10.418Z,7.82
2023-05-10T03:46:12.995Z,7.63
2023-05-10T03:49:15.526Z,8.95
2023-05-10T03:52:19.111Z,7.00
2023-05-10T03:55:21.780Z,5.10
2023-05-10T03:58:24.382Z,8.13
2023-05-10T04:01:26.770Z,7.85
2023-05-10T04:04:29.309Z,6.90
2023-05-10T04:07:31.707Z,6.10
2023-05-10T04:10:34.246Z,6.32
2023-05-10T04:13:36.680Z,6.88
2023-05-10T04:16:39.614Z,6.82
2023-05-10T04:19:41.870Z,5.97
2023-05-10T04:22:44.216Z,5.78
2023-05-10T04:25:46.516Z,6.78
2023-05-10T04:28:48.842Z,6.60
2023-05-10T04:31:51.970Z,7.10
2023-05-10T04:34:54.483Z,5.43
2023-05-10T04:37:57.145Z,6.55
2023-05-10T04:41:10.478Z,6.70
2023-05-10T04:44:12.811Z,4.75
2023-05-10T04:47:15.176Z,6.82
2023-05-10T04:50:17.772Z,6.82
2023-05-10T04:53:20.630Z,5.93
2023-05-10T04:56:23.531Z,6.68
2023-05-10T04:59:25.862Z,6.75
2023-05-10T05:02:28.305Z,6.88
2023-05-10T05:05:30.703Z,6.97
2023-05-10T05:08:33.078Z,6.43
2023-05-10T05:11:35.565Z,5.38
2023-05-10T05:14:37.857Z,5.97
2023-05-10T05:17:40.217Z,6.28
2023-05-10T05:20:42.632Z,8.75
2023-05-10T05:23:45.031Z,5.55
2023-05-10T05:26:47.485Z,5.18
2023-05-10T05:29:49.803Z,6.45
2023-05-10T05:32:52.593Z,8.48
2023-05-10T05:35:55.026Z,5.95
2023-05-10T05:38:57.609Z,7.80
2023-05-10T05:42:00.033Z,6.75
2023-05-10T05:45:02.373Z,6.03
2023-05-10T05:48:05.358Z,6.45
2023-05-10T05:51:07.686Z,6.80
2023-05-10T05:54:10.120Z,6.20
2023-05-10T05:57:12.842Z,6.00
2023-05-10T06:00:15.578Z,6.32
2023-05-10T06:03:18.012Z,5.85
2023-05-10T06:06:20.802Z,6.85
2023-05-10T06:09:24.951Z,4.75
2023-05-10T06:12:27.300Z,6.18
2023-05-10T06:15:29.630Z,5.45
2023-05-10T06:18:32.122Z,4.63
2023-05-10T06:21:34.478Z,7.45
2023-05-10T06:24:36.864Z,4.40
2023-05-10T06:27:39.379Z,5.32
2023-05-10T06:30:41.632Z,5.90
2023-05-10T06:33:43.931Z,6.68
2023-05-10T06:36:46.582Z,6.07
2023-05-10T06:39:49.525Z,4.63
2023-05-10T06:42:52.276Z,5.20
2023-05-10T06:45:54.629Z,4.03
2023-05-10T06:48:56.959Z,6.10
2023-05-10T06:51:59.261Z,4.03
2023-05-10T06:55:01.551Z,4.47
2023-05-10T06:58:04.001Z,5.63
2023-05-10T07:01:06.955Z,5.57
2023-05-10T07:04:09.635Z,5.40
2023-05-10T07:07:12.092Z,5.60
2023-05-10T07:10:14.577Z,4.93
2023-05-10T07:13:17.040Z,5.40
2023-05-10T07:16:19.916Z,4.60
2023-05-10T07:19:31.731Z,5.93
2023-05-10T07:22:34.924Z,3.47
2023-05-10T07:25:37.206Z,5.60
2023-05-10T07:28:40.159Z,5.32
2023-05-10T07:31:43.838Z,5.30
2023-05-10T07:34:46.117Z,6.80
2023-05-10T07:37:48.613Z,6.28
2023-05-10T07:40:50.948Z,5.78
2023-05-10T07:43:53.295Z,5.85
2023-05-10T07:46:56.630Z,4.97
2023-05-10T07:49:58.879Z,4.55
2023-05-10T07:53:01.329Z,5.90
2023-05-10T07:56:33.398Z,6.00
2023-05-10T07:59:35.754Z,6.03
2023-05-10T08:02:38.613Z,5.70
2023-05-10T08:05:41.573Z,4.50
2023-05-10T08:08:44.023Z,7.82
2023-05-10T08:11:46.425Z,6.70
2023-05-10T08:14:48.937Z,5.40
2023-05-10T08:17:51.342Z,6.35
2023-05-10T08:20:53.698Z,5.90
2023-05-10T08:23:59.938Z,6.07
2023-05-10T08:27:02.296Z,5.40
2023-05-10T08:30:04.912Z,6.40
2023-05-10T08:33:07.269Z,5.68
2023-05-10T08:36:09.844Z,4.22
2023-05-10T08:39:22.964Z,5.18
2023-05-10T08:42:32.078Z,4.80
2023-05-10T08:45:41.386Z,4.38
2023-05-10T08:48:44.932Z,5.88
2023-05-10T08:51:55.922Z,4.32
2023-05-10T08:54:58.673Z,3.42
2023-05-10T08:58:01.460Z,4.00
2023-05-10T09:01:04.541Z,4.55
2023-05-10T09:04:07.513Z,3.55
2023-05-10T09:07:09.890Z,4.35
2023-05-10T09:10:12.703Z,5.13
2023-05-10T09:13:19.014Z,4.10
2023-05-10T09:16:22.440Z,6.28
2023-05-10T09:19:25.024Z,3.53
2023-05-10T09:22:28.302Z,4.22
2023-05-10T09:25:30.765Z,4.07
2023-05-10T09:28:51.456Z,4.78
2023-05-10T09:31:55.834Z,3.80
2023-05-10T09:34:58.383Z,3.55
2023-05-10T09:38:04.505Z,4.80
2023-05-10T09:41:18.439Z,3.97
2023-05-10T09:47:23.454Z,3.38
2023-05-10T09:50:26.709Z,5.18
2023-05-10T09:53:29.160Z,6.38
2023-05-10T09:56:40.012Z,4.18
2023-05-10T09:59:44.308Z,4.53
2023-05-10T10:02:56.585Z,4.10
2023-05-10T10:05:59.075Z,4.78
2023-05-10T10:09:01.463Z,6.28
2023-05-10T10:12:04.654Z,5.40
2023-05-10T10:15:08.721Z,3.80
2023-05-10T10:18:16.236Z,3.47
2023-05-10T10:24:20.870Z,5.18
2023-05-10T10:27:29.653Z,3.25
2023-05-10T10:30:48.014Z,3.72
2023-05-10T10:33:59.707Z,4.00
2023-05-10T10:37:06.380Z,4.07
2023-05-10T10:40:44.340Z,4.93
2023-05-10T10:43:46.647Z,3.03
2023-05-10T10:47:02.606Z,4.07
2023-05-10T10:50:09.016Z,3.78
2023-05-10T10:53:12.392Z,2.92
2023-05-10T10:56:16.318Z,2.95
2023-05-10T10:59:28.911Z,4.38
2023-05-10T11:02:46.820Z,2.75
2023-05-10T11:05:50.557Z,3.33
2023-05-10T11:08:53.878Z,2.97
2023-05-10T11:11:56.529Z,3.75
2023-05-10T11:14:59.047Z,2.47
2023-05-10T11:18:37.440Z,3.38
2023-05-10T11:22:14.090Z,4.57
2023-05-10T11:25:16.402Z,3.75
2023-05-10T11:28:20.464Z,2.88
2023-05-10T11:31:23.961Z,2.90
2023-05-10T11:34:36.387Z,3.13
2023-05-10T11:37:42.220Z,4.45
2023-05-10T11:40:44.672Z,3.00
2023-05-10T11:43:48.850Z,3.38
2023-05-10T11:46:51.382Z,4.13
2023-05-10T11:49:54.287Z,3.67
2023-05-10T11:52:57.766Z,3.03
2023-05-10T11:56:11.164Z,4.30
2023-05-10T11:59:16.020Z,3.22
2023-05-10T12:02:18.512Z,3.75
2023-05-10T12:05:21.102Z,2.75
2023-05-10T12:08:25.787Z,3.63
2023-05-10T12:11:29.733Z,3.17
2023-05-10T12:14:36.179Z,4.13
2023-05-10T12:17:41.978Z,4.05
2023-05-10T12:20:45.649Z,3.40
2023-05-10T12:23:49.727Z,3.33
2023-05-10T12:26:51.979Z,2.75
2023-05-10T12:29:55.690Z,5.05
2023-05-10T12:33:12.568Z,3.53
2023-05-10T12:36:16.667Z,2.65
2023-05-10T12:39:19.056Z,3.30
2023-05-10T12:42:21.831Z,3.42
2023-05-10T12:45:24.170Z,2.22
2023-05-10T12:48:26.761Z,3.17
2023-05-10T12:51:29.066Z,2.42
2023-05-10T12:54:31.600Z,2.90
2023-05-10T12:57:34.359Z,2.78
2023-05-10T13:00:38.953Z,3.38
2023-05-10T13:03:41.250Z,4.57
2023-05-10T13:06:43.562Z,4.53
2023-05-10T13:09:45.979Z,4.25
2023-05-10T13:12:48.265Z,2.67
2023-05-10T13:15:50.713Z,3.55
2023-05-10T13:18:53.111Z,2.63
2023-05-10T13:21:55.504Z,4.22
2023-05-10T13:24:57.917Z,6.32
2023-05-10T13:28:00.215Z,3.20
2023-05-10T13:31:02.515Z,3.65
2023-05-10T13:34:06.198Z,3.47
2023-05-10T13:37:08.461Z,3.28
2023-05-10T13:40:11.579Z,5.78
2023-05-10T13:43:13.842Z,2.22
2023-05-10T13:46:16.314Z,3.20
2023-05-10T13:49:18.599Z,2.42
2023-05-10T13:52:21.132Z,2.55
2023-05-10T13:55:23.465Z,2.25
2023-05-10T13:58:25.760Z,2.97
2023-05-10T14:01:28.051Z,3.47
2023-05-10T14:04:31.354Z,5.65
2023-05-10T14:07:33.647Z,4.18
2023-05-10T14:10:35.958Z,1.70
2023-05-10T14:13:38.370Z,2.45
2023-05-10T14:16:45.413Z,2.53
2023-05-10T14:19:47.757Z,2.92
2023-05-10T14:22:50.194Z,3.20
2023-05-10T14:25:53.494Z,3.65
2023-05-10T14:28:55.889Z,3.33
2023-05-10T14:31:58.297Z,2.60
2023-05-10T14:35:00.904Z,2.53
2023-05-10T14:38:04.765Z,3.10
2023-05-10T14:41:07.917Z,2.58
2023-05-10T14:44:11.332Z,2.78
2023-05-10T14:47:13.625Z,3.35
2023-05-10T14:50:24.993Z,2.50
2023-05-10T14:53:37.537Z,4.43
2023-05-10T14:56:39.932Z,2.50
2023-05-10T14:59:42.149Z,3.10
2023-05-10T15:02:44.767Z,3.13
2023-05-10T15:05:47.680Z,2.35
2023-05-10T15:08:49.951Z,3.47
2023-05-10T15:11:52.301Z,2.67
2023-05-10T15:14:54.714Z,2.85
2023-05-10T15:17:57.161Z,2.58
2023-05-10T15:20:59.494Z,3.00
2023-05-10T15:24:02.056Z,4.00
2023-05-10T15:27:04.387Z,2.85
2023-05-10T15:30:07.503Z,3.83
2023-05-10T15:33:09.905Z,2.67
2023-05-10T15:36:12.402Z,3.55
2023-05-10T15:39:14.690Z,4.35
2023-05-10T15:42:17.070Z,4.80
2023-05-10T15:45:19.960Z,6.32
2023-05-10T15:48:22.438Z,3.30
2023-05-10T15:51:24.714Z,4.20
2023-05-10T15:54:27.075Z,4.35
2023-05-10T15:57:29.445Z,3.53
2023-05-10T16:00:31.757Z,3.88
2023-05-10T16:03:37.299Z,2.92
2023-05-10T16:06:39.923Z,3.45
2023-05-10T16:09:42.239Z,4.35
2023-05-10T16:12:44.579Z,2.75
2023-05-10T16:15:47.050Z,2.90
2023-05-10T16:18:49.434Z,4.03
2023-05-10T16:21:51.854Z,3.75
2023-05-10T16:24:54.302Z,2.92
2023-05-10T16:27:56.601Z,3.15
2023-05-10T16:30:59.027Z,3.05
2023-05-10T16:34:01.459Z,2.90
2023-05-10T16:37:04.212Z,4.25
2023-05-10T16:40:08.839Z,2.72
2023-05-10T16:43:11.343Z,4.25
2023-05-10T16:46:13.655Z,4.13
2023-05-10T16:49:16.556Z,2.40
2023-05-10T16:52:18.864Z,4.47
2023-05-10T16:55:22.049Z,4.35
2023-05-10T16:58:25.532Z,2.50
2023-05-10T17:01:28.000Z,4.35
2023-05-10T17:04:30.340Z,4.35
2023-05-10T17:07:32.660Z,2.63
2023-05-10T17:10:35.591Z,3.50
2023-05-10T17:13:38.934Z,3.40
2023-05-10T17:16:41.979Z,3.83
2023-05-10T17:19:47.608Z,2.72
2023-05-10T17:22:49.999Z,4.13
2023-05-10T17:25:52.308Z,3.88
2023-05-10T17:28:55.354Z,4.60
2023-05-10T17:31:58.595Z,5.57
2023-05-10T17:35:01.338Z,6.15
2023-05-10T17:38:03.704Z,6.55
2023-05-10T17:41:06.089Z,5.05
2023-05-10T17:44:08.370Z,6.22
2023-05-10T17:47:10.770Z,4.25
2023-05-10T17:50:13.446Z,5.05
2023-05-10T17:53:15.846Z,5.00
2023-05-10T17:56:18.202Z,4.15
2023-05-10T17:59:21.565Z,5.38
2023-05-10T18:02:24.044Z,5.45
2023-05-10T18:05:26.648Z,4.07
2023-05-10T18:08:30.917Z,4.15
2023-05-10T18:11:35.247Z,2.70
2023-05-10T18:14:41.100Z,2.97
2023-05-10T18:17:44.040Z,3.50
2023-05-10T18:20:46.838Z,4.00
2023-05-10T18:23:49.579Z,4.72
2023-05-10T18:26:52.081Z,4.28
2023-05-10T18:29:54.697Z,6.30
2023-05-10T18:32:58.108Z,3.88
2023-05-10T18:36:00.897Z,4.65
2023-05-10T18:39:03.374Z,5.10
2023-05-10T18:42:08.470Z,5.07
2023-05-10T18:45:11.654Z,4.22
2023-05-10T18:48:14.058Z,4.97
2023-05-10T18:51:16.462Z,5.65
2023-05-10T18:54:18.989Z,6.82
2023-05-10T18:57:22.059Z,7.10
2023-05-10T19:00:24.538Z,4.43
2023-05-10T19:03:27.042Z,6.22
2023-05-10T19:06:29.294Z,5.20
2023-05-10T19:09:32.233Z,6.82
2023-05-10T19:12:34.735Z,4.88
2023-05-10T19:15:37.091Z,5.35
2023-05-10T19:18:40.021Z,5.57
2023-05-10T19:21:42.366Z,4.25
2023-05-10T19:24:45.710Z,5.03
2023-05-10T19:27:48.292Z,4.05
2023-05-10T19:30:50.659Z,4.60
2023-05-10T19:33:53.730Z,5.28
2023-05-10T19:36:57.946Z,5.60
2023-05-10T19:40:00.273Z,5.00
2023-05-10T19:43:11.687Z,4.90
2023-05-10T19:46:13.995Z,3.85
2023-05-10T19:49:17.689Z,3.53
2023-05-10T19:52:20.802Z,3.90
2023-05-10T19:55:29.202Z,4.47
2023-05-10T19:58:31.552Z,4.18
2023-05-10T20:01:35.049Z,3.38
2023-05-10T20:04:38.352Z,5.45
2023-05-10T20:07:44.572Z,3.33
2023-05-10T20:10:47.107Z,3.63
2023-05-10T20:13:49.350Z,4.18
2023-05-10T20:16:57.875Z,3.83
2023-05-10T20:20:00.172Z,4.00
2023-05-10T20:23:02.464Z,3.72
2023-05-10T20:26:04.995Z,3.53
2023-05-10T20:29:07.385Z,3.85
2023-05-10T20:32:09.648Z,4.15
2023-05-10T20:35:17.975Z,3.17
2023-05-10T20:38:23.384Z,3.20
2023-05-10T20:41:27.108Z,3.15
2023-05-10T20:44:36.038Z,3.85
2023-05-10T20:47:39.867Z,3.25
2023-05-10T20:50:46.138Z,3.17
2023-05-10T20:53:52.024Z,4.68
2023-05-10T20:56:54.381Z,3.17
2023-05-10T20:59:57.821Z,3.60
2023-05-10T21:03:00.632Z,3.35
2023-05-10T21:06:03.827Z,3.88
2023-05-10T21:09:06.211Z,3.20
2023-05-10T21:12:09.407Z,4.45
2023-05-10T21:15:11.940Z,2.42
2023-05-10T21:18:17.098Z,5.32
2023-05-10T21:21:20.892Z,3.42
2023-05-10T21:24:23.359Z,3.25
2023-05-10T21:27:25.580Z,3.45
2023-05-10T21:30:28.105Z,3.40
2023-05-10T21:33:30.543Z,3.53
2023-05-10T21:36:32.851Z,3.00
2023-05-10T21:39:35.111Z,5.10
2023-05-10T21:42:37.389Z,3.70
2023-05-10T21:45:39.872Z,3.78
2023-05-10T21:48:42.228Z,2.38
2023-05-10T21:51:44.553Z,2.92
2023-05-10T21:54:46.903Z,3.15
2023-05-10T21:57:50.322Z,2.90
2023-05-10T22:00:52.601Z,2.80
2023-05-10T22:03:54.860Z,3.03
2023-05-10T22:06:57.274Z,3.63
2023-05-10T22:09:59.741Z,3.15
2023-05-10T22:13:02.000Z,3.88
2023-05-10T22:16:04.460Z,2.65
2023-05-10T22:19:07.128Z,3.53
2023-05-10T22:22:09.790Z,3.85
2023-05-10T22:25:12.125Z,3.22
2023-05-10T22:28:14.371Z,5.13
2023-05-10T22:31:16.682Z,2.35
2023-05-10T22:34:18.988Z,3.17
2023-05-10T22:37:21.276Z,2.70
2023-05-10T22:40:23.584Z,4.45
2023-05-10T22:43:25.867Z,3.00
2023-05-10T22:46:29.626Z,2.53
2023-05-10T22:49:33.210Z,3.33
2023-05-10T22:52:35.724Z,4.07
2023-05-10T22:55:38.066Z,2.80
2023-05-10T22:58:40.544Z,3.70
2023-05-10T23:01:43.085Z,2.85
2023-05-10T23:04:45.401Z,4.20
2023-05-10T23:07:52.982Z,3.90
2023-05-10T23:10:55.553Z,2.95
2023-05-10T23:13:57.846Z,3.90
2023-05-10T23:17:00.183Z,2.67
2023-05-10T23:20:03.126Z,3.63
2023-05-10T23:23:05.393Z,3.70
2023-05-10T23:26:08.846Z,4.05
2023-05-10T23:29:11.100Z,4.53
2023-05-10T23:32:13.411Z,4.28
2023-05-10T23:35:16.071Z,2.65
2023-05-10T23:38:18.325Z,3.45
2023-05-10T23:41:20.578Z,3.55
2023-05-10T23:44:23.516Z,3.42
2023-05-10T23:47:26.047Z,3.15
2023-05-10T23:50:28.400Z,2.72
2023-05-10T23:53:30.666Z,2.67
2023-05-10T23:56:33.088Z,3.15
2023-05-10T23:59:35.379Z,2.92
